sensor_id;sensor_type;location;lat;lon;timestamp;P1;durP1;ratioP1;P2;durP2;ratioP2
4424;SDS011;2225;53.568;13.266;2022-12-24T00:01:03;16.10;;;8.50;;
4424;SDS011;2225;53.568;13.266;2022-12-24T00:03:31;21.47;;;10.20;;
4424;SDS011;2225;53.568;13.266;2022-12-24T00:06:02;18.17;;;8.33;;
4424;SDS011;2225;53.568;13.266;2022-12-24T00:08:31;19.47;;;8.30;;
4424;SDS011;2225;53.568;13.266;2022-12-24T00:10:58;12.57;;;7.23;;
4424;SDS011;2225;53.568;13.266;2022-12-24T00:13:25;16.63;;;8.27;;
4424;SDS011;2225;53.568;13.266;2022-12-24T00:15:52;25.53;;;8.90;;
4424;SDS011;2225;53.568;13.266;2022-12-24T00:18:19;14.80;;;8.10;;
4424;SDS011;2225;53.568;13.266;2022-12-24T00:20:46;17.77;;;8.23;;
4424;SDS011;2225;53.568;13.266;2022-12-24T00:23:14;25.60;;;8.40;;
4424;SDS011;2225;53.568;13.266;2022-12-24T00:25:42;17.70;;;7.97;;
4424;SDS011;2225;53.568;13.266;2022-12-24T00:28:10;18.33;;;8.13;;
4424;SDS011;2225;53.568;13.266;2022-12-24T00:30:38;17.03;;;8.40;;
4424;SDS011;2225;53.568;13.266;2022-12-24T00:33:06;20.77;;;7.30;;
4424;SDS011;2225;53.568;13.266;2022-12-24T00:35:34;15.90;;;6.93;;
4424;SDS011;2225;53.568;13.266;2022-12-24T00:38:03;18.70;;;7.87;;
4424;SDS011;2225;53.568;13.266;2022-12-24T00:40:31;15.30;;;8.00;;
4424;SDS011;2225;53.568;13.266;2022-12-24T00:42:58;13.10;;;7.17;;
4424;SDS011;2225;53.568;13.266;2022-12-24T00:45:25;14.40;;;7.60;;
4424;SDS011;2225;53.568;13.266;2022-12-24T00:47:53;27.37;;;7.73;;
4424;SDS011;2225;53.568;13.266;2022-12-24T00:50:20;16.03;;;7.90;;
4424;SDS011;2225;53.568;13.266;2022-12-24T00:52:47;14.63;;;6.90;;
4424;SDS011;2225;53.568;13.266;2022-12-24T00:55:14;21.70;;;8.50;;
4424;SDS011;2225;53.568;13.266;2022-12-24T00:57:40;16.00;;;6.93;;
4424;SDS011;2225;53.568;13.266;2022-12-24T01:00:07;16.37;;;7.40;;
4424;SDS011;2225;53.568;13.266;2022-12-24T01:02:35;18.03;;;7.90;;
4424;SDS011;2225;53.568;13.266;2022-12-24T01:05:02;17.07;;;7.70;;
4424;SDS011;2225;53.568;13.266;2022-12-24T01:07:36;14.13;;;7.70;;
4424;SDS011;2225;53.568;13.266;2022-12-24T01:10:09;13.83;;;7.67;;
4424;SDS011;2225;53.568;13.266;2022-12-24T01:12:39;12.83;;;7.60;;
4424;SDS011;2225;53.568;13.266;2022-12-24T01:15:06;19.47;;;7.77;;
4424;SDS011;2225;53.568;13.266;2022-12-24T01:17:35;12.57;;;6.47;;
4424;SDS011;2225;53.568;13.266;2022-12-24T01:20:03;10.50;;;6.80;;
4424;SDS011;2225;53.568;13.266;2022-12-24T01:22:32;16.97;;;7.70;;
4424;SDS011;2225;53.568;13.266;2022-12-24T01:24:59;19.63;;;8.30;;
4424;SDS011;2225;53.568;13.266;2022-12-24T01:27:26;19.20;;;6.30;;
4424;SDS011;2225;53.568;13.266;2022-12-24T01:29:53;12.97;;;6.53;;
4424;SDS011;2225;53.568;13.266;2022-12-24T01:32:20;13.50;;;6.77;;
4424;SDS011;2225;53.568;13.266;2022-12-24T01:34:47;15.23;;;6.97;;
4424;SDS011;2225;53.568;13.266;2022-12-24T01:37:14;12.00;;;6.40;;
4424;SDS011;2225;53.568;13.266;2022-12-24T01:39:41;10.90;;;6.30;;
4424;SDS011;2225;53.568;13.266;2022-12-24T01:42:18;11.77;;;5.90;;
4424;SDS011;2225;53.568;13.266;2022-12-24T01:48:21;9.77;;;5.57;;
4424;SDS011;2225;53.568;13.266;2022-12-24T01:53:44;11.83;;;6.27;;
4424;SDS011;2225;53.568;13.266;2022-12-24T01:56:15;17.20;;;6.20;;
4424;SDS011;2225;53.568;13.266;2022-12-24T01:58:44;10.17;;;5.90;;
4424;SDS011;2225;53.568;13.266;2022-12-24T02:01:14;13.30;;;6.00;;
4424;SDS011;2225;53.568;13.266;2022-12-24T02:03:41;13.17;;;6.27;;
4424;SDS011;2225;53.568;13.266;2022-12-24T02:06:08;12.50;;;6.00;;
4424;SDS011;2225;53.568;13.266;2022-12-24T02:08:40;16.30;;;6.70;;
4424;SDS011;2225;53.568;13.266;2022-12-24T02:13:45;11.33;;;5.67;;
4424;SDS011;2225;53.568;13.266;2022-12-24T02:16:45;14.57;;;6.20;;
4424;SDS011;2225;53.568;13.266;2022-12-24T02:20:00;12.93;;;5.50;;
4424;SDS011;2225;53.568;13.266;2022-12-24T02:26:26;12.13;;;5.40;;
4424;SDS011;2225;53.568;13.266;2022-12-24T02:38:21;12.10;;;4.80;;
4424;SDS011;2225;53.568;13.266;2022-12-24T02:41:01;10.80;;;4.77;;
4424;SDS011;2225;53.568;13.266;2022-12-24T02:43:51;11.53;;;4.67;;
4424;SDS011;2225;53.568;13.266;2022-12-24T02:46:21;8.57;;;4.70;;
4424;SDS011;2225;53.568;13.266;2022-12-24T02:48:53;11.87;;;5.10;;
4424;SDS011;2225;53.568;13.266;2022-12-24T02:51:22;9.07;;;4.50;;
4424;SDS011;2225;53.568;13.266;2022-12-24T02:53:50;10.20;;;4.10;;
4424;SDS011;2225;53.568;13.266;2022-12-24T02:59:32;10.40;;;3.60;;
4424;SDS011;2225;53.568;13.266;2022-12-24T03:02:23;14.30;;;4.10;;
4424;SDS011;2225;53.568;13.266;2022-12-24T03:08:08;12.40;;;3.93;;
4424;SDS011;2225;53.568;13.266;2022-12-24T03:11:02;8.30;;;3.80;;
4424;SDS011;2225;53.568;13.266;2022-12-24T03:13:34;12.10;;;3.70;;
4424;SDS011;2225;53.568;13.266;2022-12-24T03:16:02;13.37;;;4.53;;
4424;SDS011;2225;53.568;13.266;2022-12-24T03:18:32;10.30;;;3.77;;
4424;SDS011;2225;53.568;13.266;2022-12-24T03:21:08;12.37;;;4.53;;
4424;SDS011;2225;53.568;13.266;2022-12-24T03:23:43;11.80;;;4.20;;
4424;SDS011;2225;53.568;13.266;2022-12-24T03:26:10;15.90;;;5.07;;
4424;SDS011;2225;53.568;13.266;2022-12-24T03:28:39;13.97;;;4.60;;
4424;SDS011;2225;53.568;13.266;2022-12-24T03:31:07;21.73;;;5.37;;
4424;SDS011;2225;53.568;13.266;2022-12-24T03:33:36;14.83;;;5.97;;
4424;SDS011;2225;53.568;13.266;2022-12-24T03:36:04;14.50;;;5.93;;
4424;SDS011;2225;53.568;13.266;2022-12-24T03:38:32;19.03;;;6.70;;
4424;SDS011;2225;53.568;13.266;2022-12-24T03:41:00;16.10;;;6.83;;
4424;SDS011;2225;53.568;13.266;2022-12-24T03:43:27;15.90;;;6.30;;
4424;SDS011;2225;53.568;13.266;2022-12-24T03:45:54;20.43;;;7.30;;
4424;SDS011;2225;53.568;13.266;2022-12-24T03:48:21;18.03;;;7.07;;
4424;SDS011;2225;53.568;13.266;2022-12-24T03:50:57;16.13;;;7.23;;
4424;SDS011;2225;53.568;13.266;2022-12-24T03:53:24;25.40;;;9.60;;
4424;SDS011;2225;53.568;13.266;2022-12-24T03:55:51;20.63;;;7.60;;
4424;SDS011;2225;53.568;13.266;2022-12-24T03:58:18;18.67;;;7.67;;
4424;SDS011;2225;53.568;13.266;2022-12-24T04:00:45;28.77;;;9.37;;
4424;SDS011;2225;53.568;13.266;2022-12-24T04:03:12;35.10;;;10.23;;
4424;SDS011;2225;53.568;13.266;2022-12-24T04:05:39;43.63;;;9.73;;
4424;SDS011;2225;53.568;13.266;2022-12-24T04:08:06;25.97;;;9.53;;
4424;SDS011;2225;53.568;13.266;2022-12-24T04:10:33;31.93;;;11.70;;
4424;SDS011;2225;53.568;13.266;2022-12-24T04:13:00;33.97;;;11.67;;
4424;SDS011;2225;53.568;13.266;2022-12-24T04:15:27;34.97;;;11.33;;
4424;SDS011;2225;53.568;13.266;2022-12-24T04:17:54;28.20;;;9.60;;
4424;SDS011;2225;53.568;13.266;2022-12-24T04:20:21;32.00;;;11.17;;
4424;SDS011;2225;53.568;13.266;2022-12-24T04:22:48;24.57;;;10.43;;
4424;SDS011;2225;53.568;13.266;2022-12-24T04:25:14;28.07;;;9.57;;
4424;SDS011;2225;53.568;13.266;2022-12-24T04:27:41;30.47;;;11.23;;
4424;SDS011;2225;53.568;13.266;2022-12-24T04:30:08;33.47;;;11.87;;
4424;SDS011;2225;53.568;13.266;2022-12-24T04:32:35;30.90;;;11.33;;
4424;SDS011;2225;53.568;13.266;2022-12-24T04:35:03;33.60;;;11.27;;
4424;SDS011;2225;53.568;13.266;2022-12-24T04:37:30;35.30;;;10.33;;
4424;SDS011;2225;53.568;13.266;2022-12-24T04:39:59;26.33;;;11.00;;
4424;SDS011;2225;53.568;13.266;2022-12-24T04:42:26;25.47;;;10.03;;
4424;SDS011;2225;53.568;13.266;2022-12-24T04:44:53;22.70;;;8.60;;
4424;SDS011;2225;53.568;13.266;2022-12-24T04:47:20;23.57;;;9.10;;
4424;SDS011;2225;53.568;13.266;2022-12-24T04:49:46;28.97;;;9.07;;
4424;SDS011;2225;53.568;13.266;2022-12-24T04:52:13;23.60;;;8.90;;
4424;SDS011;2225;53.568;13.266;2022-12-24T04:54:40;21.70;;;8.30;;
4424;SDS011;2225;53.568;13.266;2022-12-24T04:57:07;15.77;;;7.33;;
4424;SDS011;2225;53.568;13.266;2022-12-24T04:59:34;13.00;;;6.00;;
4424;SDS011;2225;53.568;13.266;2022-12-24T05:02:01;13.97;;;5.77;;
4424;SDS011;2225;53.568;13.266;2022-12-24T05:04:28;13.20;;;5.93;;
4424;SDS011;2225;53.568;13.266;2022-12-24T05:06:55;16.80;;;5.50;;
4424;SDS011;2225;53.568;13.266;2022-12-24T05:09:22;10.53;;;5.73;;
4424;SDS011;2225;53.568;13.266;2022-12-24T05:11:49;10.90;;;4.73;;
4424;SDS011;2225;53.568;13.266;2022-12-24T05:14:16;21.00;;;5.70;;
4424;SDS011;2225;53.568;13.266;2022-12-24T05:16:43;15.47;;;6.27;;
4424;SDS011;2225;53.568;13.266;2022-12-24T05:19:10;10.90;;;5.90;;
4424;SDS011;2225;53.568;13.266;2022-12-24T05:21:37;11.70;;;5.97;;
4424;SDS011;2225;53.568;13.266;2022-12-24T05:24:04;6.77;;;4.17;;
4424;SDS011;2225;53.568;13.266;2022-12-24T05:26:50;14.57;;;6.27;;
4424;SDS011;2225;53.568;13.266;2022-12-24T05:29:22;12.93;;;5.70;;
4424;SDS011;2225;53.568;13.266;2022-12-24T05:31:49;12.83;;;5.60;;
4424;SDS011;2225;53.568;13.266;2022-12-24T05:34:16;10.70;;;5.73;;
4424;SDS011;2225;53.568;13.266;2022-12-24T05:36:43;11.10;;;5.80;;
4424;SDS011;2225;53.568;13.266;2022-12-24T05:39:12;14.03;;;5.90;;
4424;SDS011;2225;53.568;13.266;2022-12-24T05:41:42;11.70;;;6.27;;
4424;SDS011;2225;53.568;13.266;2022-12-24T05:44:10;13.17;;;5.30;;
4424;SDS011;2225;53.568;13.266;2022-12-24T05:46:37;11.90;;;6.20;;
4424;SDS011;2225;53.568;13.266;2022-12-24T05:49:05;17.37;;;7.70;;
4424;SDS011;2225;53.568;13.266;2022-12-24T05:51:31;16.00;;;6.77;;
4424;SDS011;2225;53.568;13.266;2022-12-24T05:53:58;15.90;;;6.80;;
4424;SDS011;2225;53.568;13.266;2022-12-24T05:56:25;10.00;;;5.93;;
4424;SDS011;2225;53.568;13.266;2022-12-24T05:58:52;13.17;;;7.20;;
4424;SDS011;2225;53.568;13.266;2022-12-24T06:01:20;20.20;;;7.47;;
4424;SDS011;2225;53.568;13.266;2022-12-24T06:03:48;14.47;;;6.90;;
4424;SDS011;2225;53.568;13.266;2022-12-24T06:06:17;14.03;;;7.20;;
4424;SDS011;2225;53.568;13.266;2022-12-24T06:08:47;19.87;;;7.77;;
4424;SDS011;2225;53.568;13.266;2022-12-24T06:11:16;15.57;;;6.57;;
4424;SDS011;2225;53.568;13.266;2022-12-24T06:13:45;15.43;;;7.87;;
4424;SDS011;2225;53.568;13.266;2022-12-24T06:16:13;15.30;;;7.03;;
4424;SDS011;2225;53.568;13.266;2022-12-24T06:18:43;19.93;;;7.43;;
4424;SDS011;2225;53.568;13.266;2022-12-24T06:21:11;13.70;;;7.20;;
4424;SDS011;2225;53.568;13.266;2022-12-24T06:23:39;16.63;;;6.80;;
4424;SDS011;2225;53.568;13.266;2022-12-24T06:26:10;15.93;;;7.40;;
4424;SDS011;2225;53.568;13.266;2022-12-24T06:28:39;18.17;;;7.87;;
4424;SDS011;2225;53.568;13.266;2022-12-24T06:31:08;18.50;;;9.10;;
4424;SDS011;2225;53.568;13.266;2022-12-24T06:33:39;19.90;;;7.90;;
4424;SDS011;2225;53.568;13.266;2022-12-24T06:36:06;16.30;;;8.43;;
4424;SDS011;2225;53.568;13.266;2022-12-24T06:38:42;19.80;;;9.03;;
4424;SDS011;2225;53.568;13.266;2022-12-24T06:41:10;19.80;;;9.33;;
4424;SDS011;2225;53.568;13.266;2022-12-24T06:43:37;24.87;;;10.80;;
4424;SDS011;2225;53.568;13.266;2022-12-24T06:46:05;19.57;;;9.37;;
4424;SDS011;2225;53.568;13.266;2022-12-24T06:48:32;23.83;;;11.07;;
4424;SDS011;2225;53.568;13.266;2022-12-24T06:51:00;21.30;;;9.93;;
4424;SDS011;2225;53.568;13.266;2022-12-24T06:53:28;20.60;;;9.60;;
4424;SDS011;2225;53.568;13.266;2022-12-24T06:56:00;22.57;;;10.60;;
4424;SDS011;2225;53.568;13.266;2022-12-24T06:58:31;21.30;;;9.80;;
4424;SDS011;2225;53.568;13.266;2022-12-24T07:01:00;21.77;;;9.77;;
4424;SDS011;2225;53.568;13.266;2022-12-24T07:03:28;14.93;;;7.70;;
4424;SDS011;2225;53.568;13.266;2022-12-24T07:05:57;17.73;;;8.13;;
4424;SDS011;2225;53.568;13.266;2022-12-24T07:08:24;19.90;;;9.40;;
4424;SDS011;2225;53.568;13.266;2022-12-24T07:10:51;18.17;;;9.33;;
4424;SDS011;2225;53.568;13.266;2022-12-24T07:13:19;25.47;;;9.80;;
4424;SDS011;2225;53.568;13.266;2022-12-24T07:15:46;14.10;;;8.40;;
4424;SDS011;2225;53.568;13.266;2022-12-24T07:18:26;15.27;;;8.27;;
4424;SDS011;2225;53.568;13.266;2022-12-24T07:20:53;18.30;;;7.73;;
4424;SDS011;2225;53.568;13.266;2022-12-24T07:23:20;12.73;;;7.53;;
4424;SDS011;2225;53.568;13.266;2022-12-24T07:25:47;15.80;;;7.10;;
4424;SDS011;2225;53.568;13.266;2022-12-24T07:28:14;12.50;;;5.93;;
4424;SDS011;2225;53.568;13.266;2022-12-24T07:30:44;13.07;;;6.00;;
4424;SDS011;2225;53.568;13.266;2022-12-24T07:33:11;10.87;;;6.07;;
4424;SDS011;2225;53.568;13.266;2022-12-24T07:35:37;17.20;;;6.03;;
4424;SDS011;2225;53.568;13.266;2022-12-24T07:38:04;12.70;;;6.17;;
4424;SDS011;2225;53.568;13.266;2022-12-24T07:40:32;13.73;;;7.00;;
4424;SDS011;2225;53.568;13.266;2022-12-24T07:43:00;14.70;;;6.37;;
4424;SDS011;2225;53.568;13.266;2022-12-24T07:45:27;15.90;;;6.60;;
4424;SDS011;2225;53.568;13.266;2022-12-24T07:47:54;11.77;;;6.43;;
4424;SDS011;2225;53.568;13.266;2022-12-24T07:50:20;17.37;;;7.17;;
4424;SDS011;2225;53.568;13.266;2022-12-24T07:52:47;15.83;;;6.30;;
4424;SDS011;2225;53.568;13.266;2022-12-24T07:55:14;16.13;;;7.00;;
4424;SDS011;2225;53.568;13.266;2022-12-24T07:57:41;14.97;;;7.40;;
4424;SDS011;2225;53.568;13.266;2022-12-24T08:00:08;13.27;;;7.80;;
4424;SDS011;2225;53.568;13.266;2022-12-24T08:02:38;16.53;;;7.93;;
4424;SDS011;2225;53.568;13.266;2022-12-24T08:05:05;14.33;;;7.20;;
4424;SDS011;2225;53.568;13.266;2022-12-24T08:07:33;15.63;;;7.60;;
4424;SDS011;2225;53.568;13.266;2022-12-24T08:10:00;16.10;;;6.73;;
4424;SDS011;2225;53.568;13.266;2022-12-24T08:12:27;12.73;;;6.33;;
4424;SDS011;2225;53.568;13.266;2022-12-24T08:14:53;14.33;;;6.50;;
4424;SDS011;2225;53.568;13.266;2022-12-24T08:17:20;13.13;;;6.90;;
4424;SDS011;2225;53.568;13.266;2022-12-24T08:19:55;16.77;;;8.00;;
4424;SDS011;2225;53.568;13.266;2022-12-24T08:22:22;14.67;;;6.63;;
4424;SDS011;2225;53.568;13.266;2022-12-24T08:24:49;14.13;;;6.70;;
4424;SDS011;2225;53.568;13.266;2022-12-24T08:27:16;15.30;;;8.50;;
4424;SDS011;2225;53.568;13.266;2022-12-24T08:29:42;13.13;;;7.27;;
4424;SDS011;2225;53.568;13.266;2022-12-24T08:32:09;15.13;;;7.90;;
4424;SDS011;2225;53.568;13.266;2022-12-24T08:34:36;15.53;;;7.93;;
4424;SDS011;2225;53.568;13.266;2022-12-24T08:37:03;14.97;;;8.47;;
4424;SDS011;2225;53.568;13.266;2022-12-24T08:39:30;18.37;;;7.60;;
4424;SDS011;2225;53.568;13.266;2022-12-24T08:41:57;19.90;;;6.43;;
4424;SDS011;2225;53.568;13.266;2022-12-24T08:44:24;17.33;;;8.63;;
4424;SDS011;2225;53.568;13.266;2022-12-24T08:46:51;24.10;;;8.77;;
4424;SDS011;2225;53.568;13.266;2022-12-24T08:49:18;15.47;;;7.90;;
4424;SDS011;2225;53.568;13.266;2022-12-24T08:51:45;17.30;;;8.23;;
4424;SDS011;2225;53.568;13.266;2022-12-24T08:54:12;16.27;;;7.10;;
4424;SDS011;2225;53.568;13.266;2022-12-24T08:56:39;16.37;;;8.73;;
4424;SDS011;2225;53.568;13.266;2022-12-24T08:59:06;16.03;;;7.57;;
4424;SDS011;2225;53.568;13.266;2022-12-24T09:01:33;17.50;;;8.80;;
4424;SDS011;2225;53.568;13.266;2022-12-24T09:04:00;21.17;;;9.17;;
4424;SDS011;2225;53.568;13.266;2022-12-24T09:06:28;17.17;;;8.43;;
4424;SDS011;2225;53.568;13.266;2022-12-24T09:08:55;13.77;;;8.43;;
4424;SDS011;2225;53.568;13.266;2022-12-24T09:11:22;23.73;;;9.87;;
4424;SDS011;2225;53.568;13.266;2022-12-24T09:13:49;19.20;;;9.00;;
4424;SDS011;2225;53.568;13.266;2022-12-24T09:16:16;20.23;;;9.30;;
4424;SDS011;2225;53.568;13.266;2022-12-24T09:18:43;13.30;;;8.50;;
4424;SDS011;2225;53.568;13.266;2022-12-24T09:21:11;21.50;;;9.10;;
4424;SDS011;2225;53.568;13.266;2022-12-24T09:23:41;22.47;;;8.83;;
4424;SDS011;2225;53.568;13.266;2022-12-24T09:26:19;17.60;;;9.70;;
4424;SDS011;2225;53.568;13.266;2022-12-24T09:28:49;16.87;;;9.50;;
4424;SDS011;2225;53.568;13.266;2022-12-24T09:31:17;21.90;;;10.83;;
4424;SDS011;2225;53.568;13.266;2022-12-24T09:33:45;15.70;;;9.27;;
4424;SDS011;2225;53.568;13.266;2022-12-24T09:36:14;16.67;;;8.77;;
4424;SDS011;2225;53.568;13.266;2022-12-24T09:38:41;17.90;;;7.90;;
4424;SDS011;2225;53.568;13.266;2022-12-24T09:44:02;18.20;;;9.33;;
4424;SDS011;2225;53.568;13.266;2022-12-24T09:46:40;15.40;;;8.07;;
4424;SDS011;2225;53.568;13.266;2022-12-24T09:49:14;15.80;;;9.13;;
4424;SDS011;2225;53.568;13.266;2022-12-24T09:51:55;16.03;;;9.17;;
4424;SDS011;2225;53.568;13.266;2022-12-24T09:54:28;20.27;;;9.67;;
4424;SDS011;2225;53.568;13.266;2022-12-24T09:57:03;15.60;;;8.80;;
4424;SDS011;2225;53.568;13.266;2022-12-24T09:59:38;19.90;;;9.37;;
4424;SDS011;2225;53.568;13.266;2022-12-24T10:02:18;19.20;;;8.97;;
4424;SDS011;2225;53.568;13.266;2022-12-24T10:04:46;19.40;;;8.37;;
4424;SDS011;2225;53.568;13.266;2022-12-24T10:07:21;20.10;;;9.03;;
4424;SDS011;2225;53.568;13.266;2022-12-24T10:19:09;18.43;;;9.87;;
4424;SDS011;2225;53.568;13.266;2022-12-24T10:24:53;21.77;;;9.00;;
4424;SDS011;2225;53.568;13.266;2022-12-24T10:27:39;17.00;;;8.20;;
4424;SDS011;2225;53.568;13.266;2022-12-24T10:30:13;13.60;;;8.07;;
4424;SDS011;2225;53.568;13.266;2022-12-24T10:32:48;22.00;;;8.97;;
4424;SDS011;2225;53.568;13.266;2022-12-24T10:35:22;20.10;;;8.70;;
4424;SDS011;2225;53.568;13.266;2022-12-24T10:37:55;17.63;;;8.40;;
4424;SDS011;2225;53.568;13.266;2022-12-24T10:40:31;14.77;;;8.80;;
4424;SDS011;2225;53.568;13.266;2022-12-24T10:43:13;17.87;;;8.93;;
4424;SDS011;2225;53.568;13.266;2022-12-24T10:45:47;15.63;;;8.50;;
4424;SDS011;2225;53.568;13.266;2022-12-24T10:48:29;13.67;;;7.50;;
4424;SDS011;2225;53.568;13.266;2022-12-24T10:54:20;14.37;;;8.90;;
4424;SDS011;2225;53.568;13.266;2022-12-24T10:56:57;13.73;;;7.70;;
4424;SDS011;2225;53.568;13.266;2022-12-24T10:59:28;18.33;;;8.40;;
4424;SDS011;2225;53.568;13.266;2022-12-24T11:01:59;16.20;;;8.07;;
4424;SDS011;2225;53.568;13.266;2022-12-24T11:04:28;16.90;;;8.60;;
4424;SDS011;2225;53.568;13.266;2022-12-24T11:07:02;15.07;;;8.63;;
4424;SDS011;2225;53.568;13.266;2022-12-24T11:09:35;17.87;;;8.70;;
4424;SDS011;2225;53.568;13.266;2022-12-24T11:12:14;21.20;;;9.53;;
4424;SDS011;2225;53.568;13.266;2022-12-24T11:14:47;19.80;;;9.63;;
4424;SDS011;2225;53.568;13.266;2022-12-24T11:17:21;15.57;;;8.30;;
4424;SDS011;2225;53.568;13.266;2022-12-24T11:19:49;18.17;;;8.33;;
4424;SDS011;2225;53.568;13.266;2022-12-24T11:22:17;21.03;;;9.07;;
4424;SDS011;2225;53.568;13.266;2022-12-24T11:24:57;15.73;;;8.33;;
4424;SDS011;2225;53.568;13.266;2022-12-24T11:27:46;21.80;;;9.23;;
4424;SDS011;2225;53.568;13.266;2022-12-24T11:30:21;18.30;;;9.77;;
4424;SDS011;2225;53.568;13.266;2022-12-24T11:35:28;20.13;;;9.20;;
4424;SDS011;2225;53.568;13.266;2022-12-24T11:40:35;35.03;;;8.47;;
4424;SDS011;2225;53.568;13.266;2022-12-24T11:43:05;18.83;;;8.10;;
4424;SDS011;2225;53.568;13.266;2022-12-24T11:45:46;18.10;;;8.70;;
4424;SDS011;2225;53.568;13.266;2022-12-24T11:48:29;19.93;;;10.07;;
4424;SDS011;2225;53.568;13.266;2022-12-24T11:50:59;18.97;;;9.13;;
4424;SDS011;2225;53.568;13.266;2022-12-24T11:53:37;21.30;;;9.20;;
4424;SDS011;2225;53.568;13.266;2022-12-24T11:56:15;18.70;;;9.13;;
4424;SDS011;2225;53.568;13.266;2022-12-24T11:59:06;21.20;;;8.53;;
4424;SDS011;2225;53.568;13.266;2022-12-24T12:01:52;20.57;;;8.33;;
4424;SDS011;2225;53.568;13.266;2022-12-24T12:04:27;20.60;;;9.30;;
4424;SDS011;2225;53.568;13.266;2022-12-24T12:09:40;15.43;;;9.03;;
4424;SDS011;2225;53.568;13.266;2022-12-24T12:14:44;14.33;;;8.63;;
4424;SDS011;2225;53.568;13.266;2022-12-24T12:17:34;23.50;;;9.73;;
4424;SDS011;2225;53.568;13.266;2022-12-24T12:20:12;18.30;;;8.50;;
4424;SDS011;2225;53.568;13.266;2022-12-24T12:25:52;19.93;;;9.83;;
4424;SDS011;2225;53.568;13.266;2022-12-24T12:28:27;19.63;;;10.17;;
4424;SDS011;2225;53.568;13.266;2022-12-24T12:31:26;21.60;;;9.93;;
4424;SDS011;2225;53.568;13.266;2022-12-24T12:34:03;25.43;;;9.57;;
4424;SDS011;2225;53.568;13.266;2022-12-24T12:36:42;19.87;;;10.50;;
4424;SDS011;2225;53.568;13.266;2022-12-24T12:39:14;22.03;;;10.00;;
4424;SDS011;2225;53.568;13.266;2022-12-24T12:42:02;20.03;;;11.43;;
4424;SDS011;2225;53.568;13.266;2022-12-24T12:50:51;24.30;;;12.33;;
4424;SDS011;2225;53.568;13.266;2022-12-24T12:56:43;21.40;;;10.70;;
4424;SDS011;2225;53.568;13.266;2022-12-24T13:01:55;22.70;;;12.20;;
4424;SDS011;2225;53.568;13.266;2022-12-24T13:05:05;30.77;;;12.60;;
4424;SDS011;2225;53.568;13.266;2022-12-24T13:10:56;24.73;;;12.87;;
4424;SDS011;2225;53.568;13.266;2022-12-24T13:13:40;29.07;;;14.97;;
4424;SDS011;2225;53.568;13.266;2022-12-24T13:19:32;24.57;;;14.50;;
4424;SDS011;2225;53.568;13.266;2022-12-24T13:22:21;29.00;;;14.07;;
4424;SDS011;2225;53.568;13.266;2022-12-24T13:24:49;32.77;;;14.80;;
4424;SDS011;2225;53.568;13.266;2022-12-24T13:27:19;33.40;;;14.00;;
4424;SDS011;2225;53.568;13.266;2022-12-24T13:33:02;25.37;;;14.17;;
4424;SDS011;2225;53.568;13.266;2022-12-24T13:35:31;36.90;;;14.50;;
4424;SDS011;2225;53.568;13.266;2022-12-24T13:40:52;29.20;;;15.60;;
4424;SDS011;2225;53.568;13.266;2022-12-24T13:46:48;23.37;;;14.10;;
4424;SDS011;2225;53.568;13.266;2022-12-24T13:54:37;25.10;;;13.53;;
4424;SDS011;2225;53.568;13.266;2022-12-24T14:00:29;25.97;;;14.90;;
4424;SDS011;2225;53.568;13.266;2022-12-24T14:03:04;28.13;;;14.17;;
4424;SDS011;2225;53.568;13.266;2022-12-24T14:08:08;29.60;;;15.53;;
4424;SDS011;2225;53.568;13.266;2022-12-24T14:10:43;22.70;;;13.53;;
4424;SDS011;2225;53.568;13.266;2022-12-24T14:18:41;27.30;;;14.50;;
4424;SDS011;2225;53.568;13.266;2022-12-24T14:21:14;24.57;;;15.20;;
4424;SDS011;2225;53.568;13.266;2022-12-24T14:26:24;30.93;;;15.20;;
4424;SDS011;2225;53.568;13.266;2022-12-24T14:29:04;24.87;;;14.80;;
4424;SDS011;2225;53.568;13.266;2022-12-24T14:31:51;28.63;;;15.30;;
4424;SDS011;2225;53.568;13.266;2022-12-24T14:34:21;26.80;;;16.10;;
4424;SDS011;2225;53.568;13.266;2022-12-24T14:36:49;23.47;;;14.50;;
4424;SDS011;2225;53.568;13.266;2022-12-24T14:42:17;25.10;;;15.30;;
4424;SDS011;2225;53.568;13.266;2022-12-24T14:53:27;29.00;;;15.57;;
4424;SDS011;2225;53.568;13.266;2022-12-24T14:56:29;33.50;;;17.97;;
4424;SDS011;2225;53.568;13.266;2022-12-24T14:58:56;25.00;;;15.57;;
4424;SDS011;2225;53.568;13.266;2022-12-24T15:01:30;27.60;;;16.63;;
4424;SDS011;2225;53.568;13.266;2022-12-24T15:06:48;22.90;;;15.23;;
4424;SDS011;2225;53.568;13.266;2022-12-24T15:09:19;24.23;;;15.23;;
4424;SDS011;2225;53.568;13.266;2022-12-24T15:11:50;29.67;;;16.57;;
4424;SDS011;2225;53.568;13.266;2022-12-24T15:14:21;24.00;;;16.60;;
4424;SDS011;2225;53.568;13.266;2022-12-24T15:16:51;27.60;;;16.97;;
4424;SDS011;2225;53.568;13.266;2022-12-24T15:19:28;28.77;;;17.40;;
4424;SDS011;2225;53.568;13.266;2022-12-24T15:22:27;28.00;;;17.70;;
4424;SDS011;2225;53.568;13.266;2022-12-24T15:24:56;31.80;;;19.30;;
4424;SDS011;2225;53.568;13.266;2022-12-24T15:27:24;31.80;;;19.40;;
4424;SDS011;2225;53.568;13.266;2022-12-24T15:29:56;31.13;;;18.33;;
4424;SDS011;2225;53.568;13.266;2022-12-24T15:32:23;24.80;;;16.93;;
4424;SDS011;2225;53.568;13.266;2022-12-24T15:34:51;29.03;;;16.40;;
4424;SDS011;2225;53.568;13.266;2022-12-24T15:37:20;28.50;;;16.00;;
4424;SDS011;2225;53.568;13.266;2022-12-24T15:40:16;26.97;;;15.80;;
4424;SDS011;2225;53.568;13.266;2022-12-24T15:42:46;27.57;;;14.33;;
4424;SDS011;2225;53.568;13.266;2022-12-24T15:45:20;28.47;;;15.33;;
4424;SDS011;2225;53.568;13.266;2022-12-24T15:47:55;20.93;;;13.33;;
4424;SDS011;2225;53.568;13.266;2022-12-24T15:50:28;26.03;;;15.30;;
4424;SDS011;2225;53.568;13.266;2022-12-24T15:53:04;26.23;;;14.70;;
4424;SDS011;2225;53.568;13.266;2022-12-24T15:55:58;26.27;;;15.70;;
4424;SDS011;2225;53.568;13.266;2022-12-24T16:01:41;26.00;;;15.63;;
4424;SDS011;2225;53.568;13.266;2022-12-24T16:04:11;28.73;;;16.80;;
4424;SDS011;2225;53.568;13.266;2022-12-24T16:06:59;25.57;;;16.77;;
4424;SDS011;2225;53.568;13.266;2022-12-24T16:09:28;25.13;;;15.90;;
4424;SDS011;2225;53.568;13.266;2022-12-24T16:11:58;28.00;;;16.83;;
4424;SDS011;2225;53.568;13.266;2022-12-24T16:14:28;24.57;;;15.87;;
4424;SDS011;2225;53.568;13.266;2022-12-24T16:16:57;23.10;;;14.63;;
4424;SDS011;2225;53.568;13.266;2022-12-24T16:19:25;23.03;;;15.93;;
4424;SDS011;2225;53.568;13.266;2022-12-24T16:22:05;25.10;;;15.73;;
4424;SDS011;2225;53.568;13.266;2022-12-24T16:24:51;26.07;;;16.17;;
4424;SDS011;2225;53.568;13.266;2022-12-24T16:27:20;25.23;;;15.03;;
4424;SDS011;2225;53.568;13.266;2022-12-24T16:29:47;26.33;;;15.50;;
4424;SDS011;2225;53.568;13.266;2022-12-24T16:32:26;23.83;;;15.03;;
4424;SDS011;2225;53.568;13.266;2022-12-24T16:35:00;27.00;;;16.03;;
4424;SDS011;2225;53.568;13.266;2022-12-24T16:37:29;22.97;;;14.97;;
4424;SDS011;2225;53.568;13.266;2022-12-24T16:39:56;23.30;;;15.83;;
4424;SDS011;2225;53.568;13.266;2022-12-24T16:42:24;26.97;;;16.63;;
4424;SDS011;2225;53.568;13.266;2022-12-24T16:45:10;35.30;;;18.83;;
4424;SDS011;2225;53.568;13.266;2022-12-24T16:47:36;31.87;;;17.37;;
4424;SDS011;2225;53.568;13.266;2022-12-24T16:50:13;29.17;;;16.77;;
4424;SDS011;2225;53.568;13.266;2022-12-24T16:52:41;26.77;;;15.37;;
4424;SDS011;2225;53.568;13.266;2022-12-24T16:55:12;27.40;;;16.00;;
4424;SDS011;2225;53.568;13.266;2022-12-24T16:57:39;27.50;;;17.73;;
4424;SDS011;2225;53.568;13.266;2022-12-24T17:00:10;25.97;;;16.50;;
4424;SDS011;2225;53.568;13.266;2022-12-24T17:02:43;28.20;;;18.50;;
4424;SDS011;2225;53.568;13.266;2022-12-24T17:05:11;25.97;;;15.67;;
4424;SDS011;2225;53.568;13.266;2022-12-24T17:07:38;30.33;;;17.90;;
4424;SDS011;2225;53.568;13.266;2022-12-24T17:10:10;28.73;;;16.50;;
4424;SDS011;2225;53.568;13.266;2022-12-24T17:12:39;26.57;;;15.67;;